EZS332 LFSB-GCFV
Flight info
| Callsign | EZS332 |
|---|---|
| Flight time | N/A |
| Altitude | 35000 |
| Route | MOROK T14 GILIR DCT TUROM DCT NINTU DCT MEBAK DCT REPSI DCT LERGA DCT MINSO DCT NARAK DCT AGN DCT PIPOR L866 PPN DCT MIRPO DCT DGO DCT NEA/N0454F370 L14 ADINO DCT RAKOD DCT ELVAR DCT DUZOP DCT NOKSO DCT TAKAV DCT VEDOD UN857 TERTO |
| Aircraft | A320/M-SDE3FGHIRWY/LB1 |
Departure
| Time | 2026-05-07 16:43 |
|---|---|
| Airport | EuroAirport Basel–Mulhouse–Freiburg (LFSB) |
Arrival
| Time | N/A |
|---|---|
| Airport | Fuerteventura Airport (GCFV) |
| Time | Latitude | Longitude | Altitude | Speed | Heading |
|---|---|---|---|---|---|
| 2026-05-07 16:20 | 47.59797 | 7.52842 | 887 ft | 0 kts | 69° |
| 2026-05-07 16:34 | 47.59795 | 7.52834 | 886 ft | 2 kts | 69° |
| 2026-05-07 16:34 | 47.59789 | 7.52810 | 886 ft | 2 kts | 69° |
| 2026-05-07 16:34 | 47.59784 | 7.52786 | 887 ft | 2 kts | 97° |
| 2026-05-07 16:34 | 47.59786 | 7.52761 | 887 ft | 2 kts | 126° |
| 2026-05-07 16:35 | 47.59789 | 7.52754 | 887 ft | 0 kts | 149° |
| 2026-05-07 16:37 | 47.59788 | 7.52755 | 887 ft | 2 kts | 150° |
| 2026-05-07 16:37 | 47.59754 | 7.52776 | 887 ft | 7 kts | 156° |
| 2026-05-07 16:37 | 47.59713 | 7.52804 | 887 ft | 6 kts | 154° |
| 2026-05-07 16:38 | 47.59682 | 7.52827 | 887 ft | 4 kts | 154° |
| 2026-05-07 16:38 | 47.59658 | 7.52844 | 887 ft | 4 kts | 154° |
| 2026-05-07 16:38 | 47.59632 | 7.52862 | 887 ft | 5 kts | 158° |
| 2026-05-07 16:38 | 47.59607 | 7.52855 | 887 ft | 4 kts | 210° |
| 2026-05-07 16:39 | 47.59562 | 7.52821 | 887 ft | 7 kts | 176° |
| 2026-05-07 16:39 | 47.59517 | 7.52840 | 887 ft | 7 kts | 171° |
| 2026-05-07 16:39 | 47.59479 | 7.52821 | 888 ft | 4 kts | 222° |
| 2026-05-07 16:39 | 47.59468 | 7.52796 | 889 ft | 4 kts | 241° |
| 2026-05-07 16:40 | 47.59438 | 7.52703 | 893 ft | 15 kts | 245° |
| 2026-05-07 16:40 | 47.59378 | 7.52516 | 889 ft | 24 kts | 242° |
| 2026-05-07 16:40 | 47.59299 | 7.52267 | 886 ft | 30 kts | 245° |
| 2026-05-07 16:40 | 47.59176 | 7.52014 | 886 ft | 31 kts | 225° |
| 2026-05-07 16:41 | 47.59025 | 7.51788 | 886 ft | 31 kts | 225° |
| 2026-05-07 16:41 | 47.58870 | 7.51682 | 888 ft | 23 kts | 168° |
| 2026-05-07 16:41 | 47.58804 | 7.51736 | 895 ft | 7 kts | 96° |
| 2026-05-07 16:41 | 47.58807 | 7.51776 | 895 ft | 0 kts | 75° |
| 2026-05-07 16:42 | 47.58809 | 7.51785 | 895 ft | 11 kts | 76° |
| 2026-05-07 16:42 | 47.58897 | 7.52342 | 894 ft | 98 kts | 77° |
| 2026-05-07 16:42 | 47.59113 | 7.53675 | 910 ft | 163 kts | 77° |
| 2026-05-07 16:43 | 47.59357 | 7.55345 | 1650 ft | 167 kts | 74° |
| 2026-05-07 16:43 | 47.59602 | 7.57023 | 2372 ft | 171 kts | 76° |
| 2026-05-07 16:43 | 47.59893 | 7.58850 | 2630 ft | 194 kts | 75° |
| 2026-05-07 16:43 | 47.60231 | 7.60905 | 2903 ft | 216 kts | 73° |
| 2026-05-07 16:44 | 47.60574 | 7.63169 | 3286 ft | 236 kts | 83° |
| 2026-05-07 16:44 | 47.60326 | 7.65663 | 3677 ft | 261 kts | 115° |
| 2026-05-07 16:44 | 47.59095 | 7.67678 | 4349 ft | 272 kts | 152° |
| 2026-05-07 16:44 | 47.57274 | 7.68331 | 5126 ft | 273 kts | 187° |
| 2026-05-07 16:45 | 47.55540 | 7.67351 | 6032 ft | 269 kts | 221° |
| 2026-05-07 16:45 | 47.54497 | 7.65122 | 6905 ft | 267 kts | 252° |
| 2026-05-07 16:45 | 47.54052 | 7.62450 | 7729 ft | 269 kts | 258° |
| 2026-05-07 16:45 | 47.53681 | 7.59721 | 8557 ft | 271 kts | 258° |
| 2026-05-07 16:46 | 47.53324 | 7.56968 | 9419 ft | 273 kts | 258° |
| 2026-05-07 16:46 | 47.52957 | 7.54202 | 10234 ft | 276 kts | 257° |
| 2026-05-07 16:46 | 47.52560 | 7.51318 | 10528 ft | 298 kts | 257° |
| 2026-05-07 16:46 | 47.52118 | 7.48198 | 10700 ft | 321 kts | 257° |
| 2026-05-07 16:47 | 47.51635 | 7.44859 | 10912 ft | 341 kts | 257° |
| 2026-05-07 16:47 | 47.51130 | 7.41394 | 11462 ft | 348 kts | 257° |
| 2026-05-07 16:47 | 47.50613 | 7.37877 | 12130 ft | 352 kts | 257° |
| 2026-05-07 16:47 | 47.50086 | 7.34319 | 12817 ft | 356 kts | 257° |
| 2026-05-07 16:48 | 47.49552 | 7.30721 | 13498 ft | 360 kts | 257° |
| 2026-05-07 16:48 | 47.49007 | 7.27081 | 14126 ft | 364 kts | 257° |
| 2026-05-07 16:48 | 47.48455 | 7.23410 | 14725 ft | 367 kts | 257° |
| 2026-05-07 16:48 | 47.47896 | 7.19710 | 15307 ft | 370 kts | 257° |
| 2026-05-07 16:49 | 47.47335 | 7.15978 | 15884 ft | 373 kts | 257° |
| 2026-05-07 16:49 | 47.46774 | 7.12223 | 16437 ft | 376 kts | 257° |
| 2026-05-07 16:49 | 47.46207 | 7.08425 | 16987 ft | 379 kts | 257° |
| 2026-05-07 16:49 | 47.45829 | 7.05901 | 17357 ft | 381 kts | 257° |
| 2026-05-07 16:50 | 47.45252 | 7.02067 | 17902 ft | 384 kts | 257° |
| 2026-05-07 16:50 | 47.44668 | 6.98201 | 18428 ft | 387 kts | 257° |
| 2026-05-07 16:50 | 47.44077 | 6.94310 | 18886 ft | 390 kts | 257° |
| 2026-05-07 16:50 | 47.43478 | 6.90394 | 19344 ft | 392 kts | 257° |
| 2026-05-07 16:51 | 47.42874 | 6.86449 | 19810 ft | 395 kts | 257° |
| 2026-05-07 16:51 | 47.42270 | 6.82504 | 20278 ft | 397 kts | 257° |
| 2026-05-07 16:51 | 47.41655 | 6.78493 | 20759 ft | 400 kts | 257° |
| 2026-05-07 16:51 | 47.41036 | 6.74483 | 21224 ft | 402 kts | 257° |
| 2026-05-07 16:52 | 47.40315 | 6.70477 | 21658 ft | 405 kts | 250° |
| 2026-05-07 16:52 | 47.39144 | 6.66690 | 22064 ft | 408 kts | 240° |
| 2026-05-07 16:52 | 47.37521 | 6.63257 | 22501 ft | 411 kts | 230° |
| 2026-05-07 16:52 | 47.35484 | 6.60276 | 22903 ft | 414 kts | 221° |
| 2026-05-07 16:53 | 47.33277 | 6.57525 | 23299 ft | 417 kts | 221° |
| 2026-05-07 16:53 | 47.31056 | 6.54755 | 23690 ft | 419 kts | 221° |
| 2026-05-07 16:53 | 47.28829 | 6.51969 | 24031 ft | 421 kts | 221° |
| 2026-05-07 16:53 | 47.26592 | 6.49166 | 24377 ft | 423 kts | 221° |
| 2026-05-07 16:54 | 47.24343 | 6.46349 | 24699 ft | 425 kts | 222° |
| 2026-05-07 16:54 | 47.22089 | 6.43526 | 25053 ft | 427 kts | 222° |
| 2026-05-07 16:54 | 47.19826 | 6.40694 | 25374 ft | 428 kts | 222° |
| 2026-05-07 16:54 | 47.17551 | 6.37852 | 25706 ft | 430 kts | 222° |
| 2026-05-07 16:55 | 47.15269 | 6.35005 | 26034 ft | 431 kts | 222° |
| 2026-05-07 16:55 | 47.12982 | 6.32153 | 26347 ft | 433 kts | 222° |
| 2026-05-07 16:55 | 47.10713 | 6.29330 | 26645 ft | 434 kts | 222° |
| 2026-05-07 16:55 | 47.08398 | 6.26461 | 26945 ft | 436 kts | 222° |
| 2026-05-07 16:56 | 47.06074 | 6.23590 | 27239 ft | 437 kts | 222° |
| 2026-05-07 16:56 | 47.03746 | 6.20719 | 27521 ft | 439 kts | 222° |
| 2026-05-07 16:56 | 46.99056 | 6.14939 | 28097 ft | 441 kts | 223° |
| 2026-05-07 16:57 | 46.96713 | 6.12051 | 28498 ft | 439 kts | 223° |
| 2026-05-07 16:57 | 46.94382 | 6.09174 | 28923 ft | 438 kts | 223° |
| 2026-05-07 16:57 | 46.92062 | 6.06310 | 29340 ft | 436 kts | 223° |
| 2026-05-07 16:57 | 46.89743 | 6.03452 | 29757 ft | 435 kts | 223° |
| 2026-05-07 16:58 | 46.87432 | 6.00612 | 30162 ft | 433 kts | 223° |
| 2026-05-07 16:58 | 46.85076 | 5.97869 | 30500 ft | 434 kts | 217° |
| 2026-05-07 16:58 | 46.82468 | 5.95638 | 30855 ft | 436 kts | 208° |
| 2026-05-07 16:58 | 46.79676 | 5.93904 | 31192 ft | 436 kts | 206° |
| 2026-05-07 16:59 | 46.76867 | 5.92222 | 31551 ft | 435 kts | 206° |
| 2026-05-07 16:59 | 46.74077 | 5.90553 | 31907 ft | 433 kts | 206° |
| 2026-05-07 16:59 | 46.71292 | 5.88888 | 32247 ft | 432 kts | 206° |
| 2026-05-07 16:59 | 46.68515 | 5.87225 | 32572 ft | 431 kts | 206° |
| 2026-05-07 17:00 | 46.65745 | 5.85562 | 32914 ft | 430 kts | 206° |
| 2026-05-07 17:00 | 46.62989 | 5.83907 | 33257 ft | 429 kts | 206° |
| 2026-05-07 17:00 | 46.60233 | 5.82256 | 33592 ft | 428 kts | 206° |
| 2026-05-07 17:00 | 46.57488 | 5.80618 | 33920 ft | 427 kts | 206° |
| 2026-05-07 17:01 | 46.54741 | 5.78981 | 34220 ft | 426 kts | 206° |
| 2026-05-07 17:01 | 46.52003 | 5.77348 | 34477 ft | 425 kts | 206° |
| 2026-05-07 17:01 | 46.49300 | 5.75736 | 34734 ft | 425 kts | 206° |
| 2026-05-07 17:01 | 46.46525 | 5.74089 | 34955 ft | 426 kts | 206° |
| 2026-05-07 17:02 | 46.41054 | 5.70846 | 35090 ft | 429 kts | 206° |
| 2026-05-07 17:02 | 46.38267 | 5.69190 | 35380 ft | 427 kts | 206° |
| 2026-05-07 17:02 | 46.35556 | 5.67581 | 35611 ft | 426 kts | 206° |
| 2026-05-07 17:03 | 46.32814 | 5.65955 | 35799 ft | 426 kts | 206° |
| 2026-05-07 17:03 | 46.30072 | 5.64329 | 35996 ft | 426 kts | 206° |
| 2026-05-07 17:03 | 46.27329 | 5.62710 | 36183 ft | 426 kts | 206° |
| 2026-05-07 17:03 | 46.24584 | 5.61096 | 36385 ft | 426 kts | 206° |
| 2026-05-07 17:04 | 46.21840 | 5.59484 | 36542 ft | 426 kts | 206° |
| 2026-05-07 17:04 | 46.19107 | 5.57843 | 36735 ft | 424 kts | 208° |
| 2026-05-07 17:04 | 46.16548 | 5.55772 | 36920 ft | 420 kts | 217° |
| 2026-05-07 17:04 | 46.14264 | 5.53180 | 37091 ft | 417 kts | 225° |
| 2026-05-07 17:05 | 46.12293 | 5.50123 | 37250 ft | 415 kts | 233° |
| 2026-05-07 17:05 | 46.10624 | 5.46727 | 37415 ft | 415 kts | 237° |
| 2026-05-07 17:05 | 46.08990 | 5.43301 | 37584 ft | 415 kts | 236° |
| 2026-05-07 17:05 | 46.07349 | 5.39883 | 37744 ft | 415 kts | 236° |
| 2026-05-07 17:06 | 46.05701 | 5.36470 | 37904 ft | 415 kts | 236° |
| 2026-05-07 17:06 | 46.04051 | 5.33058 | 38052 ft | 415 kts | 236° |
| 2026-05-07 17:06 | 46.02403 | 5.29642 | 38220 ft | 415 kts | 236° |
| 2026-05-07 17:06 | 46.00764 | 5.26241 | 38378 ft | 415 kts | 236° |
| 2026-05-07 17:07 | 45.99117 | 5.22829 | 38528 ft | 415 kts | 236° |
| 2026-05-07 17:07 | 45.97467 | 5.19420 | 38655 ft | 415 kts | 236° |
| 2026-05-07 17:07 | 45.95820 | 5.16021 | 38759 ft | 415 kts | 236° |
| 2026-05-07 17:07 | 45.94171 | 5.12624 | 38912 ft | 414 kts | 236° |
| 2026-05-07 17:08 | 45.90861 | 5.05825 | 38983 ft | 416 kts | 236° |
| 2026-05-07 17:08 | 45.87564 | 4.99057 | 39002 ft | 416 kts | 236° |
| 2026-05-07 17:09 | 45.84250 | 4.92259 | 39001 ft | 416 kts | 236° |
| 2026-05-07 17:09 | 45.80928 | 4.85473 | 39001 ft | 415 kts | 235° |
| 2026-05-07 17:10 | 45.77601 | 4.78706 | 39001 ft | 415 kts | 235° |
| 2026-05-07 17:10 | 45.74276 | 4.71948 | 39000 ft | 415 kts | 235° |
| 2026-05-07 17:11 | 45.70943 | 4.65189 | 39008 ft | 416 kts | 235° |
| 2026-05-07 17:11 | 45.67608 | 4.58425 | 38999 ft | 416 kts | 235° |
| 2026-05-07 17:12 | 45.64268 | 4.51663 | 39005 ft | 416 kts | 235° |
| 2026-05-07 17:12 | 45.60917 | 4.44924 | 39007 ft | 416 kts | 235° |
| 2026-05-07 17:13 | 45.57563 | 4.38190 | 39013 ft | 416 kts | 235° |
| 2026-05-07 17:13 | 45.54202 | 4.31450 | 39015 ft | 417 kts | 235° |
| 2026-05-07 17:14 | 45.50841 | 4.24715 | 39021 ft | 417 kts | 235° |
| 2026-05-07 17:14 | 45.47470 | 4.17984 | 39018 ft | 417 kts | 234° |
| 2026-05-07 17:15 | 45.44113 | 4.11317 | 39012 ft | 417 kts | 234° |
| 2026-05-07 17:15 | 45.40735 | 4.04617 | 39011 ft | 417 kts | 234° |
| 2026-05-07 17:16 | 45.37333 | 3.97874 | 39002 ft | 416 kts | 234° |
| 2026-05-07 17:16 | 45.33971 | 3.91238 | 39002 ft | 416 kts | 234° |
| 2026-05-07 17:17 | 45.30581 | 3.84569 | 39000 ft | 416 kts | 234° |
| 2026-05-07 17:17 | 45.27186 | 3.77901 | 39008 ft | 416 kts | 234° |
| 2026-05-07 17:18 | 45.23808 | 3.71229 | 38986 ft | 416 kts | 235° |
| 2026-05-07 17:18 | 45.20504 | 3.64487 | 38977 ft | 416 kts | 236° |
| 2026-05-07 17:19 | 45.17213 | 3.57743 | 38980 ft | 416 kts | 235° |
| 2026-05-07 17:19 | 45.13905 | 3.51015 | 38975 ft | 416 kts | 235° |
| 2026-05-07 17:20 | 45.10585 | 3.44310 | 38978 ft | 416 kts | 235° |
| 2026-05-07 17:20 | 45.07255 | 3.37623 | 38968 ft | 415 kts | 235° |
| 2026-05-07 17:21 | 45.03927 | 3.30951 | 38981 ft | 415 kts | 235° |
| 2026-05-07 17:21 | 45.00600 | 3.24284 | 38980 ft | 415 kts | 235° |
| 2026-05-07 17:22 | 44.97262 | 3.17631 | 38977 ft | 415 kts | 235° |
| 2026-05-07 17:22 | 44.93926 | 3.10981 | 38968 ft | 415 kts | 235° |
| 2026-05-07 17:23 | 44.90591 | 3.04332 | 38985 ft | 415 kts | 234° |
| 2026-05-07 17:23 | 44.87251 | 2.97698 | 38981 ft | 415 kts | 234° |
| 2026-05-07 17:24 | 44.83910 | 2.91060 | 38977 ft | 415 kts | 236° |
| 2026-05-07 17:24 | 44.80741 | 2.84256 | 38979 ft | 416 kts | 237° |
| 2026-05-07 17:25 | 44.77676 | 2.77421 | 38986 ft | 416 kts | 237° |
| 2026-05-07 17:25 | 44.74556 | 2.70570 | 38986 ft | 416 kts | 237° |
| 2026-05-07 17:26 | 44.71396 | 2.63752 | 38987 ft | 416 kts | 237° |
| 2026-05-07 17:26 | 44.68221 | 2.56945 | 38985 ft | 417 kts | 237° |
| 2026-05-07 17:27 | 44.65049 | 2.50141 | 38986 ft | 417 kts | 237° |
| 2026-05-07 17:27 | 44.61870 | 2.43327 | 38992 ft | 417 kts | 237° |
| 2026-05-07 17:28 | 44.58689 | 2.36515 | 38982 ft | 417 kts | 237° |
| 2026-05-07 17:28 | 44.55508 | 2.29718 | 38984 ft | 417 kts | 236° |
| 2026-05-07 17:29 | 44.52321 | 2.22934 | 38987 ft | 417 kts | 236° |
| 2026-05-07 17:29 | 44.49124 | 2.16151 | 38988 ft | 417 kts | 236° |
| 2026-05-07 17:30 | 44.45918 | 2.09365 | 38980 ft | 418 kts | 236° |
| 2026-05-07 17:30 | 44.42706 | 2.02589 | 38980 ft | 418 kts | 236° |
| 2026-05-07 17:31 | 44.39489 | 1.95808 | 38964 ft | 418 kts | 236° |
| 2026-05-07 17:31 | 44.36288 | 1.89069 | 38977 ft | 418 kts | 236° |
| 2026-05-07 17:32 | 44.33095 | 1.82346 | 38971 ft | 418 kts | 236° |
| 2026-05-07 17:32 | 44.30394 | 1.76697 | 38973 ft | 418 kts | 236° |
| 2026-05-07 17:33 | 44.26682 | 1.68810 | 38966 ft | 418 kts | 237° |
| 2026-05-07 17:33 | 44.23568 | 1.61959 | 38952 ft | 419 kts | 237° |
| 2026-05-07 17:34 | 44.20424 | 1.55063 | 38542 ft | 418 kts | 237° |
| 2026-05-07 17:34 | 44.18859 | 1.51658 | 37973 ft | 416 kts | 237° |
| 2026-05-07 17:34 | 44.17293 | 1.48267 | 37939 ft | 417 kts | 237° |
| 2026-05-07 17:35 | 44.14140 | 1.41455 | 37952 ft | 419 kts | 237° |
| 2026-05-07 17:35 | 44.10975 | 1.34647 | 37945 ft | 419 kts | 237° |
| 2026-05-07 17:36 | 44.07827 | 1.27907 | 38217 ft | 415 kts | 237° |
| 2026-05-07 17:36 | 44.06262 | 1.24546 | 38508 ft | 413 kts | 237° |
| 2026-05-07 17:36 | 44.04706 | 1.21201 | 38726 ft | 410 kts | 237° |
| 2026-05-07 17:37 | 44.03160 | 1.17877 | 38890 ft | 410 kts | 237° |
| 2026-05-07 17:37 | 44.01607 | 1.14549 | 38938 ft | 412 kts | 237° |
| 2026-05-07 17:37 | 43.98466 | 1.07832 | 38943 ft | 417 kts | 237° |
| 2026-05-07 17:38 | 43.95285 | 1.01075 | 38939 ft | 419 kts | 237° |
| 2026-05-07 17:38 | 43.92097 | 0.94310 | 38937 ft | 419 kts | 237° |
| 2026-05-07 17:39 | 43.88912 | 0.87532 | 38939 ft | 419 kts | 237° |
| 2026-05-07 17:39 | 43.86342 | 0.81830 | 38943 ft | 420 kts | 239° |
| 2026-05-07 17:40 | 43.83391 | 0.74852 | 38953 ft | 420 kts | 240° |
| 2026-05-07 17:40 | 43.80445 | 0.67851 | 38941 ft | 421 kts | 239° |
| 2026-05-07 17:41 | 43.77453 | 0.60884 | 38942 ft | 421 kts | 239° |
| 2026-05-07 17:41 | 43.74432 | 0.53934 | 38942 ft | 422 kts | 239° |
| 2026-05-07 17:42 | 43.71404 | 0.46983 | 38946 ft | 422 kts | 239° |
| 2026-05-07 17:42 | 43.68381 | 0.40042 | 38949 ft | 422 kts | 239° |
| 2026-05-07 17:43 | 43.65354 | 0.33100 | 38948 ft | 422 kts | 239° |
| 2026-05-07 17:43 | 43.62318 | 0.26152 | 38928 ft | 423 kts | 239° |
| 2026-05-07 17:44 | 43.59273 | 0.19201 | 38935 ft | 424 kts | 239° |
| 2026-05-07 17:44 | 43.56234 | 0.12289 | 38940 ft | 424 kts | 239° |
| 2026-05-07 17:45 | 43.53167 | 0.05340 | 38941 ft | 425 kts | 239° |
| 2026-05-07 17:45 | 43.50093 | -0.01611 | 38953 ft | 425 kts | 238° |
| 2026-05-07 17:46 | 43.47016 | -0.08569 | 38941 ft | 426 kts | 238° |
| 2026-05-07 17:46 | 43.43928 | -0.15539 | 38941 ft | 426 kts | 238° |
| 2026-05-07 17:47 | 43.40834 | -0.22501 | 38932 ft | 427 kts | 238° |
| 2026-05-07 17:47 | 43.37736 | -0.29455 | 38928 ft | 427 kts | 238° |
| 2026-05-07 17:48 | 43.34626 | -0.36413 | 38933 ft | 427 kts | 238° |
| 2026-05-07 17:48 | 43.31511 | -0.43360 | 38934 ft | 427 kts | 238° |
| 2026-05-07 17:49 | 43.28393 | -0.50309 | 38939 ft | 428 kts | 238° |
| 2026-05-07 17:49 | 43.25264 | -0.57250 | 38943 ft | 428 kts | 238° |
| 2026-05-07 17:50 | 43.22132 | -0.64194 | 38946 ft | 428 kts | 238° |
| 2026-05-07 17:50 | 43.19002 | -0.71125 | 38949 ft | 428 kts | 238° |
| 2026-05-07 17:51 | 43.15866 | -0.78048 | 38966 ft | 428 kts | 238° |
| 2026-05-07 17:51 | 43.12719 | -0.84964 | 38970 ft | 428 kts | 238° |
| 2026-05-07 17:52 | 43.09569 | -0.91871 | 38976 ft | 428 kts | 238° |
| 2026-05-07 17:52 | 43.06440 | -0.98741 | 38965 ft | 428 kts | 238° |
| 2026-05-07 17:53 | 43.03281 | -1.05647 | 38970 ft | 428 kts | 238° |
| 2026-05-07 17:53 | 43.00112 | -1.12542 | 38963 ft | 428 kts | 238° |
| 2026-05-07 17:54 | 42.96943 | -1.19440 | 38966 ft | 429 kts | 238° |
| 2026-05-07 17:54 | 42.93770 | -1.26340 | 38961 ft | 429 kts | 238° |
| 2026-05-07 17:55 | 42.90583 | -1.33224 | 38960 ft | 430 kts | 238° |
| 2026-05-07 17:55 | 42.87392 | -1.40115 | 38946 ft | 430 kts | 238° |
| 2026-05-07 17:56 | 42.84199 | -1.47006 | 38946 ft | 430 kts | 238° |
| 2026-05-07 17:56 | 42.80996 | -1.53889 | 38938 ft | 430 kts | 238° |
| 2026-05-07 17:57 | 42.78325 | -1.59605 | 38936 ft | 431 kts | 238° |
| 2026-05-07 17:57 | 42.74558 | -1.67646 | 38934 ft | 431 kts | 239° |
| 2026-05-07 17:58 | 42.72266 | -1.75139 | 38933 ft | 430 kts | 253° |
| 2026-05-07 17:58 | 42.70544 | -1.82878 | 38945 ft | 431 kts | 252° |
| 2026-05-07 17:59 | 42.68781 | -1.90661 | 38961 ft | 431 kts | 252° |
| 2026-05-07 17:59 | 42.67010 | -1.98443 | 38965 ft | 431 kts | 252° |
| 2026-05-07 18:00 | 42.65238 | -2.06211 | 38972 ft | 430 kts | 252° |
| 2026-05-07 18:00 | 42.63468 | -2.13971 | 38965 ft | 430 kts | 252° |
| 2026-05-07 18:01 | 42.61659 | -2.21706 | 38964 ft | 430 kts | 252° |
| 2026-05-07 18:01 | 42.59775 | -2.29399 | 38967 ft | 430 kts | 251° |
| 2026-05-07 18:02 | 42.56942 | -2.40927 | 38966 ft | 429 kts | 251° |
| 2026-05-07 18:03 | 42.55064 | -2.48607 | 38963 ft | 429 kts | 251° |
| 2026-05-07 18:03 | 42.53190 | -2.56281 | 38964 ft | 428 kts | 251° |
| 2026-05-07 18:04 | 42.51309 | -2.63944 | 38955 ft | 428 kts | 251° |
| 2026-05-07 18:04 | 42.49417 | -2.71595 | 38975 ft | 428 kts | 252° |
| 2026-05-07 18:05 | 42.47527 | -2.79219 | 38972 ft | 426 kts | 252° |
| 2026-05-07 18:05 | 42.45635 | -2.86820 | 38962 ft | 425 kts | 251° |
| 2026-05-07 18:06 | 42.43268 | -2.94145 | 38965 ft | 425 kts | 246° |
| 2026-05-07 18:06 | 42.40802 | -3.01412 | 38967 ft | 425 kts | 246° |
| 2026-05-07 18:07 | 42.38328 | -3.08662 | 38958 ft | 425 kts | 246° |
| 2026-05-07 18:07 | 42.35857 | -3.15875 | 38938 ft | 425 kts | 246° |
| 2026-05-07 18:08 | 42.33372 | -3.23127 | 38955 ft | 425 kts | 246° |
| 2026-05-07 18:08 | 42.30882 | -3.30373 | 38959 ft | 425 kts | 246° |
| 2026-05-07 18:09 | 42.28389 | -3.37620 | 38963 ft | 425 kts | 246° |
| 2026-05-07 18:09 | 42.25874 | -3.44830 | 38983 ft | 425 kts | 246° |
| 2026-05-07 18:10 | 42.23373 | -3.52056 | 38973 ft | 425 kts | 246° |
| 2026-05-07 18:10 | 42.20880 | -3.59293 | 38967 ft | 426 kts | 246° |
| 2026-05-07 18:11 | 42.18361 | -3.66527 | 38953 ft | 426 kts | 246° |
| 2026-05-07 18:11 | 42.15839 | -3.73752 | 38954 ft | 426 kts | 246° |
| 2026-05-07 18:12 | 42.13311 | -3.80982 | 38940 ft | 426 kts | 246° |
| 2026-05-07 18:12 | 42.10776 | -3.88191 | 38947 ft | 426 kts | 247° |
| 2026-05-07 18:13 | 42.08245 | -3.95382 | 38950 ft | 425 kts | 247° |
| 2026-05-07 18:13 | 42.05716 | -4.02567 | 38951 ft | 424 kts | 247° |
| 2026-05-07 18:14 | 42.03014 | -4.09619 | 38949 ft | 426 kts | 238° |
| 2026-05-07 18:14 | 41.98923 | -4.15436 | 38947 ft | 432 kts | 224° |
| 2026-05-07 18:15 | 41.94392 | -4.20732 | 38942 ft | 432 kts | 225° |
| 2026-05-07 18:15 | 41.89864 | -4.26028 | 38926 ft | 432 kts | 225° |
| 2026-05-07 18:16 | 41.85332 | -4.31317 | 38936 ft | 432 kts | 225° |
| 2026-05-07 18:16 | 41.80806 | -4.36595 | 38939 ft | 431 kts | 225° |
| 2026-05-07 18:17 | 41.76273 | -4.41859 | 38937 ft | 431 kts | 225° |
| 2026-05-07 18:17 | 41.71772 | -4.47078 | 38937 ft | 431 kts | 225° |
| 2026-05-07 18:18 | 41.67248 | -4.52334 | 38923 ft | 430 kts | 225° |
| 2026-05-07 18:18 | 41.62726 | -4.57573 | 38930 ft | 430 kts | 225° |
| 2026-05-07 18:19 | 41.58196 | -4.62790 | 38948 ft | 429 kts | 225° |
| 2026-05-07 18:19 | 41.53690 | -4.67975 | 38691 ft | 426 kts | 226° |
| 2026-05-07 18:19 | 41.51450 | -4.70555 | 38048 ft | 425 kts | 226° |
| 2026-05-07 18:20 | 41.49216 | -4.73125 | 37362 ft | 424 kts | 226° |
| 2026-05-07 18:20 | 41.46981 | -4.75697 | 36680 ft | 424 kts | 227° |
| 2026-05-07 18:20 | 41.44746 | -4.78262 | 36011 ft | 423 kts | 227° |
| 2026-05-07 18:20 | 41.42516 | -4.80815 | 35374 ft | 422 kts | 228° |
| 2026-05-07 18:21 | 41.40296 | -4.83352 | 35010 ft | 420 kts | 228° |
| 2026-05-07 18:21 | 41.38075 | -4.85886 | 34889 ft | 420 kts | 228° |
| 2026-05-07 18:21 | 41.35855 | -4.88421 | 34913 ft | 421 kts | 228° |
| 2026-05-07 18:22 | 41.31404 | -4.93505 | 34912 ft | 422 kts | 228° |
| 2026-05-07 18:22 | 41.26953 | -4.98575 | 34917 ft | 421 kts | 228° |
| 2026-05-07 18:23 | 41.22514 | -5.03620 | 34899 ft | 419 kts | 228° |
| 2026-05-07 18:23 | 41.18086 | -5.08636 | 34910 ft | 418 kts | 228° |
| 2026-05-07 18:24 | 41.13689 | -5.13610 | 34912 ft | 418 kts | 228° |
| 2026-05-07 18:24 | 41.09264 | -5.18614 | 34913 ft | 418 kts | 228° |
| 2026-05-07 18:25 | 41.04837 | -5.23611 | 34912 ft | 418 kts | 228° |
| 2026-05-07 18:25 | 41.00402 | -5.28604 | 34898 ft | 418 kts | 227° |
| 2026-05-07 18:26 | 40.95972 | -5.33579 | 34889 ft | 418 kts | 227° |
| 2026-05-07 18:26 | 40.91540 | -5.38555 | 34902 ft | 417 kts | 227° |
| 2026-05-07 18:27 | 40.87111 | -5.43515 | 34905 ft | 417 kts | 227° |
| 2026-05-07 18:27 | 40.82684 | -5.48463 | 34908 ft | 417 kts | 227° |
| 2026-05-07 18:28 | 40.78253 | -5.53406 | 34902 ft | 417 kts | 227° |
| 2026-05-07 18:28 | 40.73819 | -5.58338 | 34868 ft | 416 kts | 227° |
| 2026-05-07 18:29 | 40.69393 | -5.63258 | 34877 ft | 416 kts | 227° |
| 2026-05-07 18:29 | 40.65710 | -5.67337 | 34876 ft | 416 kts | 226° |
| 2026-05-07 18:30 | 40.61280 | -5.72243 | 34871 ft | 416 kts | 226° |
| 2026-05-07 18:30 | 40.56857 | -5.77142 | 34882 ft | 415 kts | 226° |
| 2026-05-07 18:31 | 40.52432 | -5.82033 | 34885 ft | 416 kts | 226° |
| 2026-05-07 18:31 | 40.48003 | -5.86919 | 34897 ft | 416 kts | 226° |
| 2026-05-07 18:32 | 40.43570 | -5.91795 | 34902 ft | 416 kts | 226° |
| 2026-05-07 18:32 | 40.39133 | -5.96666 | 34894 ft | 416 kts | 226° |
| 2026-05-07 18:33 | 40.34697 | -6.01519 | 34880 ft | 415 kts | 226° |
| 2026-05-07 18:33 | 40.30260 | -6.06379 | 34874 ft | 415 kts | 226° |
| 2026-05-07 18:34 | 40.25837 | -6.11219 | 34876 ft | 414 kts | 225° |
| 2026-05-07 18:34 | 40.21416 | -6.16043 | 34880 ft | 413 kts | 225° |
| 2026-05-07 18:35 | 40.17002 | -6.20850 | 34883 ft | 413 kts | 225° |
| 2026-05-07 18:35 | 40.12593 | -6.25644 | 34881 ft | 413 kts | 225° |
| 2026-05-07 18:36 | 40.08173 | -6.30433 | 34844 ft | 412 kts | 225° |
| 2026-05-07 18:36 | 40.03761 | -6.35199 | 34866 ft | 411 kts | 225° |
| 2026-05-07 18:37 | 39.99362 | -6.39952 | 34867 ft | 410 kts | 225° |
| 2026-05-07 18:37 | 39.94968 | -6.44694 | 34870 ft | 410 kts | 225° |
| 2026-05-07 18:38 | 39.90574 | -6.49418 | 34872 ft | 409 kts | 225° |
| 2026-05-07 18:38 | 39.86188 | -6.54142 | 34867 ft | 409 kts | 225° |
| 2026-05-07 18:39 | 39.81843 | -6.58815 | 34856 ft | 408 kts | 225° |
| 2026-05-07 18:39 | 39.77473 | -6.63497 | 34864 ft | 406 kts | 225° |
| 2026-05-07 18:40 | 39.73109 | -6.68156 | 34865 ft | 406 kts | 225° |
| 2026-05-07 18:40 | 39.68755 | -6.72803 | 34864 ft | 405 kts | 225° |
| 2026-05-07 18:41 | 39.64404 | -6.77448 | 34859 ft | 405 kts | 225° |
| 2026-05-07 18:41 | 39.60059 | -6.82086 | 34838 ft | 404 kts | 224° |
| 2026-05-07 18:42 | 39.55714 | -6.86699 | 34864 ft | 403 kts | 224° |
| 2026-05-07 18:42 | 39.51386 | -6.91286 | 34868 ft | 402 kts | 224° |
| 2026-05-07 18:43 | 39.47065 | -6.95868 | 34867 ft | 401 kts | 224° |
| 2026-05-07 18:43 | 39.42749 | -7.00430 | 34869 ft | 400 kts | 224° |
| 2026-05-07 18:44 | 39.38438 | -7.04982 | 34862 ft | 400 kts | 224° |
| 2026-05-07 18:44 | 39.34130 | -7.09523 | 34850 ft | 399 kts | 224° |
| 2026-05-07 18:45 | 39.29826 | -7.14051 | 34858 ft | 399 kts | 224° |
| 2026-05-07 18:45 | 39.25528 | -7.18571 | 34867 ft | 398 kts | 224° |
| 2026-05-07 18:46 | 39.21114 | -7.22896 | 34874 ft | 402 kts | 215° |
| 2026-05-07 18:46 | 39.16203 | -7.26311 | 34877 ft | 403 kts | 213° |
| 2026-05-07 18:47 | 39.11231 | -7.29755 | 34865 ft | 403 kts | 213° |
| 2026-05-07 18:47 | 39.06334 | -7.33152 | 34878 ft | 402 kts | 213° |
| 2026-05-07 18:48 | 39.01397 | -7.36556 | 34881 ft | 402 kts | 213° |
| 2026-05-07 18:48 | 38.96469 | -7.39951 | 34878 ft | 402 kts | 213° |
| 2026-05-07 18:49 | 38.91542 | -7.43341 | 34879 ft | 402 kts | 213° |
| 2026-05-07 18:49 | 38.86615 | -7.46731 | 34876 ft | 401 kts | 213° |
| 2026-05-07 18:50 | 38.81697 | -7.50101 | 34891 ft | 400 kts | 213° |
| 2026-05-07 18:50 | 38.76793 | -7.53463 | 34899 ft | 400 kts | 213° |
| 2026-05-07 18:51 | 38.71893 | -7.56816 | 34895 ft | 399 kts | 213° |
| 2026-05-07 18:51 | 38.66994 | -7.60161 | 34913 ft | 399 kts | 213° |
| 2026-05-07 18:52 | 38.62098 | -7.63497 | 34900 ft | 398 kts | 212° |
| 2026-05-07 18:52 | 38.57213 | -7.66824 | 34907 ft | 398 kts | 212° |
| 2026-05-07 18:53 | 38.52331 | -7.70148 | 34905 ft | 397 kts | 212° |
| 2026-05-07 18:53 | 38.47453 | -7.73467 | 34909 ft | 397 kts | 212° |
| 2026-05-07 18:54 | 38.42576 | -7.76776 | 34908 ft | 397 kts | 212° |
| 2026-05-07 18:54 | 38.37699 | -7.80070 | 34892 ft | 397 kts | 212° |
| 2026-05-07 18:55 | 38.32818 | -7.83364 | 34897 ft | 397 kts | 212° |
| 2026-05-07 18:55 | 38.27931 | -7.86658 | 34897 ft | 397 kts | 212° |
| 2026-05-07 18:56 | 38.23049 | -7.89945 | 34891 ft | 397 kts | 212° |
| 2026-05-07 18:56 | 38.18164 | -7.93232 | 34888 ft | 397 kts | 212° |
| 2026-05-07 18:57 | 38.13310 | -7.96490 | 34889 ft | 397 kts | 212° |
| 2026-05-07 18:57 | 38.08392 | -7.99785 | 34888 ft | 397 kts | 212° |
| 2026-05-07 18:58 | 38.03546 | -8.03037 | 34886 ft | 397 kts | 212° |
| 2026-05-07 18:58 | 37.98663 | -8.06298 | 34890 ft | 397 kts | 212° |
| 2026-05-07 18:59 | 37.93784 | -8.09553 | 34924 ft | 396 kts | 212° |
| 2026-05-07 18:59 | 37.88904 | -8.12818 | 34904 ft | 396 kts | 212° |
| 2026-05-07 19:00 | 37.84026 | -8.16065 | 34907 ft | 396 kts | 212° |
| 2026-05-07 19:00 | 37.79150 | -8.19299 | 34915 ft | 396 kts | 212° |
| 2026-05-07 19:01 | 37.74269 | -8.22534 | 34924 ft | 396 kts | 212° |
| 2026-05-07 19:01 | 37.69387 | -8.25763 | 34929 ft | 396 kts | 212° |
| 2026-05-07 19:02 | 37.64504 | -8.28986 | 34922 ft | 396 kts | 212° |
| 2026-05-07 19:02 | 37.59624 | -8.32218 | 34927 ft | 396 kts | 212° |
| 2026-05-07 19:03 | 37.54738 | -8.35453 | 34953 ft | 396 kts | 211° |
| 2026-05-07 19:03 | 37.49856 | -8.38661 | 34960 ft | 395 kts | 211° |
| 2026-05-07 19:04 | 37.44980 | -8.41860 | 34961 ft | 395 kts | 211° |
| 2026-05-07 19:04 | 37.40117 | -8.45059 | 34938 ft | 394 kts | 211° |
| 2026-05-07 19:05 | 37.35260 | -8.48250 | 34943 ft | 393 kts | 211° |
| 2026-05-07 19:05 | 37.30409 | -8.51428 | 34943 ft | 393 kts | 211° |
| 2026-05-07 19:06 | 37.25559 | -8.54594 | 34943 ft | 393 kts | 211° |
| 2026-05-07 19:06 | 37.18283 | -8.59340 | 34943 ft | 393 kts | 211° |
| 2026-05-07 19:07 | 37.13431 | -8.62500 | 34923 ft | 393 kts | 211° |
| 2026-05-07 19:07 | 37.08579 | -8.65644 | 34940 ft | 393 kts | 211° |
| 2026-05-07 19:08 | 37.03722 | -8.68791 | 34949 ft | 393 kts | 211° |
| 2026-05-07 19:08 | 36.98873 | -8.71942 | 34967 ft | 393 kts | 210° |
| 2026-05-07 19:09 | 36.94022 | -8.75092 | 34969 ft | 393 kts | 211° |
| 2026-05-07 19:09 | 36.89173 | -8.78226 | 34941 ft | 393 kts | 211° |
| 2026-05-07 19:10 | 36.84316 | -8.81359 | 34947 ft | 393 kts | 211° |
| 2026-05-07 19:10 | 36.79488 | -8.84475 | 34956 ft | 393 kts | 211° |
| 2026-05-07 19:11 | 36.74629 | -8.87607 | 34965 ft | 393 kts | 211° |
| 2026-05-07 19:11 | 36.69765 | -8.90739 | 34951 ft | 393 kts | 211° |
| 2026-05-07 19:12 | 36.64897 | -8.93859 | 34934 ft | 393 kts | 210° |
| 2026-05-07 19:12 | 36.60026 | -8.96973 | 34947 ft | 394 kts | 210° |
| 2026-05-07 19:13 | 36.55153 | -9.00092 | 34951 ft | 394 kts | 210° |
| 2026-05-07 19:13 | 36.50275 | -9.03212 | 34959 ft | 394 kts | 210° |
| 2026-05-07 19:14 | 36.45402 | -9.06321 | 34957 ft | 394 kts | 210° |
| 2026-05-07 19:14 | 36.40524 | -9.09424 | 34985 ft | 394 kts | 210° |
| 2026-05-07 19:15 | 36.35655 | -9.12526 | 34973 ft | 393 kts | 210° |
| 2026-05-07 19:15 | 36.30798 | -9.15621 | 34974 ft | 392 kts | 210° |
| 2026-05-07 19:16 | 36.26766 | -9.18181 | 34974 ft | 391 kts | 210° |
| 2026-05-07 19:16 | 36.21920 | -9.21249 | 34969 ft | 391 kts | 210° |
| 2026-05-07 19:17 | 36.17076 | -9.24316 | 34972 ft | 391 kts | 210° |
| 2026-05-07 19:17 | 36.12231 | -9.27382 | 34949 ft | 391 kts | 210° |
| 2026-05-07 19:18 | 36.07388 | -9.30439 | 34957 ft | 391 kts | 210° |
| 2026-05-07 19:18 | 36.02546 | -9.33491 | 34961 ft | 391 kts | 210° |
| 2026-05-07 19:19 | 35.97705 | -9.36542 | 34962 ft | 391 kts | 210° |
| 2026-05-07 19:19 | 35.92829 | -9.39530 | 34968 ft | 392 kts | 208° |
| 2026-05-07 19:20 | 35.87908 | -9.42399 | 34964 ft | 392 kts | 208° |
| 2026-05-07 19:20 | 35.82974 | -9.45258 | 34955 ft | 391 kts | 208° |
| 2026-05-07 19:21 | 35.78061 | -9.48140 | 34982 ft | 391 kts | 208° |
| 2026-05-07 19:21 | 35.73159 | -9.51030 | 34979 ft | 391 kts | 208° |
| 2026-05-07 19:22 | 35.68253 | -9.53910 | 34974 ft | 390 kts | 208° |
| 2026-05-07 19:22 | 35.63352 | -9.56775 | 34973 ft | 390 kts | 208° |
| 2026-05-07 19:23 | 35.58455 | -9.59630 | 34973 ft | 390 kts | 208° |
| 2026-05-07 19:23 | 35.53586 | -9.62470 | 34971 ft | 390 kts | 208° |
| 2026-05-07 19:24 | 35.48650 | -9.65344 | 34970 ft | 390 kts | 208° |
| 2026-05-07 19:24 | 35.43787 | -9.68179 | 34968 ft | 390 kts | 208° |
| 2026-05-07 19:25 | 35.38887 | -9.71021 | 34968 ft | 390 kts | 208° |
| 2026-05-07 19:25 | 35.33986 | -9.73858 | 34953 ft | 389 kts | 208° |
| 2026-05-07 19:26 | 35.29088 | -9.76694 | 34958 ft | 389 kts | 208° |
| 2026-05-07 19:26 | 35.24191 | -9.79532 | 34959 ft | 389 kts | 208° |
| 2026-05-07 19:27 | 35.19298 | -9.82359 | 34958 ft | 389 kts | 208° |
| 2026-05-07 19:27 | 35.14431 | -9.85246 | 34986 ft | 389 kts | 209° |
| 2026-05-07 19:28 | 35.09598 | -9.88194 | 34961 ft | 388 kts | 209° |
| 2026-05-07 19:28 | 35.04767 | -9.91137 | 34962 ft | 388 kts | 209° |
| 2026-05-07 19:29 | 34.99932 | -9.94070 | 34965 ft | 388 kts | 209° |
| 2026-05-07 19:29 | 34.95091 | -9.96985 | 34966 ft | 388 kts | 209° |
| 2026-05-07 19:30 | 34.90247 | -9.99894 | 34968 ft | 388 kts | 208° |
| 2026-05-07 19:30 | 34.85401 | -10.02807 | 34970 ft | 388 kts | 209° |
| 2026-05-07 19:31 | 34.80556 | -10.05719 | 34946 ft | 388 kts | 209° |
| 2026-05-07 19:31 | 34.75746 | -10.08611 | 34954 ft | 388 kts | 209° |
| 2026-05-07 19:32 | 34.70897 | -10.11517 | 34960 ft | 389 kts | 209° |
| 2026-05-07 19:32 | 34.66045 | -10.14420 | 34966 ft | 389 kts | 209° |
| 2026-05-07 19:33 | 34.61192 | -10.17319 | 34969 ft | 389 kts | 209° |
| 2026-05-07 19:33 | 34.56346 | -10.20221 | 34952 ft | 389 kts | 209° |
| 2026-05-07 19:34 | 34.51491 | -10.23108 | 34988 ft | 388 kts | 209° |
| 2026-05-07 19:34 | 34.46649 | -10.25984 | 34989 ft | 387 kts | 209° |
| 2026-05-07 19:35 | 34.41816 | -10.28861 | 34991 ft | 387 kts | 209° |
| 2026-05-07 19:35 | 34.36984 | -10.31739 | 34989 ft | 387 kts | 209° |
| 2026-05-07 19:36 | 34.32147 | -10.34606 | 34989 ft | 387 kts | 209° |
| 2026-05-07 19:36 | 34.27313 | -10.37467 | 34976 ft | 387 kts | 209° |
| 2026-05-07 19:37 | 34.22469 | -10.40325 | 34986 ft | 387 kts | 209° |
| 2026-05-07 19:37 | 34.17632 | -10.43185 | 34990 ft | 387 kts | 209° |
| 2026-05-07 19:38 | 34.12798 | -10.46038 | 34988 ft | 386 kts | 209° |
| 2026-05-07 19:38 | 34.07969 | -10.48884 | 34985 ft | 386 kts | 209° |
| 2026-05-07 19:39 | 34.03145 | -10.51717 | 34987 ft | 386 kts | 209° |
| 2026-05-07 19:39 | 33.98317 | -10.54557 | 34955 ft | 386 kts | 210° |
| 2026-05-07 19:40 | 33.93492 | -10.57397 | 35004 ft | 386 kts | 210° |
| 2026-05-07 19:40 | 33.88665 | -10.60233 | 35008 ft | 386 kts | 210° |
| 2026-05-07 19:41 | 33.83846 | -10.63054 | 35006 ft | 385 kts | 210° |
| 2026-05-07 19:41 | 33.79035 | -10.65864 | 35004 ft | 384 kts | 210° |
| 2026-05-07 19:42 | 33.74258 | -10.68654 | 34970 ft | 384 kts | 210° |
| 2026-05-07 19:42 | 33.69458 | -10.71456 | 34976 ft | 383 kts | 210° |
| 2026-05-07 19:43 | 33.64661 | -10.74249 | 34984 ft | 383 kts | 210° |
| 2026-05-07 19:43 | 33.59862 | -10.77041 | 34986 ft | 383 kts | 210° |
| 2026-05-07 19:44 | 33.55070 | -10.79828 | 34989 ft | 383 kts | 210° |
| 2026-05-07 19:44 | 33.50277 | -10.82610 | 34992 ft | 383 kts | 210° |
| 2026-05-07 19:45 | 33.45476 | -10.85384 | 34966 ft | 383 kts | 211° |
| 2026-05-07 19:45 | 33.40681 | -10.88166 | 34976 ft | 383 kts | 211° |
| 2026-05-07 19:46 | 33.35888 | -10.90942 | 34984 ft | 383 kts | 211° |
| 2026-05-07 19:46 | 33.31098 | -10.93714 | 34988 ft | 382 kts | 211° |
| 2026-05-07 19:47 | 33.26315 | -10.96469 | 35022 ft | 381 kts | 210° |
| 2026-05-07 19:47 | 33.21536 | -10.99215 | 35015 ft | 381 kts | 210° |
| 2026-05-07 19:48 | 33.16773 | -11.01955 | 34977 ft | 380 kts | 211° |
| 2026-05-07 19:48 | 33.12014 | -11.04691 | 34987 ft | 379 kts | 211° |
| 2026-05-07 19:49 | 33.07255 | -11.07423 | 34991 ft | 379 kts | 211° |
| 2026-05-07 19:49 | 33.02511 | -11.10143 | 34993 ft | 378 kts | 211° |
| 2026-05-07 19:50 | 32.97767 | -11.12861 | 34994 ft | 378 kts | 211° |
| 2026-05-07 19:50 | 32.93032 | -11.15572 | 34992 ft | 378 kts | 211° |
| 2026-05-07 19:51 | 32.88297 | -11.18282 | 34990 ft | 377 kts | 211° |
| 2026-05-07 19:51 | 32.83563 | -11.20982 | 34988 ft | 377 kts | 211° |
| 2026-05-07 19:52 | 32.78861 | -11.23659 | 34993 ft | 377 kts | 211° |
| 2026-05-07 19:52 | 32.74125 | -11.26350 | 34990 ft | 377 kts | 211° |
| 2026-05-07 19:53 | 32.69393 | -11.29045 | 34987 ft | 377 kts | 211° |
| 2026-05-07 19:53 | 32.64664 | -11.31728 | 35016 ft | 377 kts | 211° |
| 2026-05-07 19:54 | 32.59945 | -11.34405 | 34991 ft | 375 kts | 212° |
| 2026-05-07 19:54 | 32.55239 | -11.37074 | 34994 ft | 374 kts | 212° |
| 2026-05-07 19:55 | 32.50544 | -11.39731 | 34993 ft | 374 kts | 212° |
| 2026-05-07 19:55 | 32.45862 | -11.42378 | 34990 ft | 373 kts | 212° |
| 2026-05-07 19:56 | 32.41176 | -11.45024 | 34991 ft | 373 kts | 212° |
| 2026-05-07 19:56 | 32.36490 | -11.47659 | 34989 ft | 373 kts | 212° |
| 2026-05-07 19:57 | 32.31806 | -11.50302 | 34954 ft | 373 kts | 213° |
| 2026-05-07 19:57 | 32.27124 | -11.52949 | 34961 ft | 373 kts | 213° |
| 2026-05-07 19:58 | 32.22429 | -11.55586 | 34978 ft | 373 kts | 212° |
| 2026-05-07 19:58 | 32.17773 | -11.58202 | 34975 ft | 373 kts | 213° |
| 2026-05-07 19:59 | 32.13079 | -11.60840 | 34983 ft | 374 kts | 213° |
| 2026-05-07 19:59 | 32.08383 | -11.63465 | 34988 ft | 373 kts | 212° |
| 2026-05-07 20:00 | 32.03682 | -11.66088 | 34960 ft | 374 kts | 213° |
| 2026-05-07 20:00 | 31.98972 | -11.68715 | 34966 ft | 375 kts | 213° |
| 2026-05-07 20:01 | 31.94261 | -11.71343 | 34969 ft | 375 kts | 213° |
| 2026-05-07 20:01 | 31.89579 | -11.73957 | 34974 ft | 375 kts | 213° |
| 2026-05-07 20:02 | 31.84865 | -11.76599 | 34982 ft | 375 kts | 213° |
| 2026-05-07 20:02 | 31.80914 | -11.78798 | 34983 ft | 375 kts | 213° |
| 2026-05-07 20:03 | 31.75406 | -11.81849 | 34958 ft | 378 kts | 213° |
| 2026-05-07 20:03 | 31.70649 | -11.84488 | 34959 ft | 378 kts | 213° |
| 2026-05-07 20:04 | 31.66660 | -11.86699 | 34981 ft | 379 kts | 213° |
| 2026-05-07 20:04 | 31.61893 | -11.89336 | 34983 ft | 379 kts | 213° |
| 2026-05-07 20:05 | 31.57158 | -11.91959 | 34988 ft | 379 kts | 213° |
| 2026-05-07 20:05 | 31.52390 | -11.94588 | 34990 ft | 379 kts | 213° |
| 2026-05-07 20:06 | 31.47625 | -11.97227 | 34952 ft | 379 kts | 213° |
| 2026-05-07 20:06 | 31.42842 | -11.99879 | 34961 ft | 380 kts | 213° |
| 2026-05-07 20:07 | 31.38050 | -12.02514 | 34965 ft | 381 kts | 213° |
| 2026-05-07 20:07 | 31.33247 | -12.05143 | 34999 ft | 381 kts | 213° |
| 2026-05-07 20:08 | 31.28454 | -12.07772 | 35002 ft | 380 kts | 214° |
| 2026-05-07 20:08 | 31.23677 | -12.10400 | 35003 ft | 379 kts | 214° |
| 2026-05-07 20:09 | 31.18899 | -12.13027 | 34967 ft | 379 kts | 214° |
| 2026-05-07 20:10 | 31.11717 | -12.16947 | 34974 ft | 380 kts | 214° |
| 2026-05-07 20:10 | 31.06924 | -12.19570 | 34980 ft | 380 kts | 214° |
| 2026-05-07 20:11 | 31.02127 | -12.22189 | 34986 ft | 381 kts | 214° |
| 2026-05-07 20:11 | 30.97336 | -12.24808 | 34987 ft | 381 kts | 214° |
| 2026-05-07 20:12 | 30.92526 | -12.27427 | 34947 ft | 382 kts | 214° |
| 2026-05-07 20:12 | 30.87681 | -12.30065 | 34979 ft | 386 kts | 213° |
| 2026-05-07 20:13 | 30.82814 | -12.32710 | 34989 ft | 386 kts | 213° |
| 2026-05-07 20:13 | 30.77871 | -12.35390 | 34994 ft | 386 kts | 213° |
| 2026-05-07 20:14 | 30.73071 | -12.37994 | 34994 ft | 386 kts | 213° |
| 2026-05-07 20:14 | 30.68195 | -12.40639 | 34998 ft | 386 kts | 213° |
| 2026-05-07 20:15 | 30.63328 | -12.43273 | 34969 ft | 386 kts | 214° |
| 2026-05-07 20:15 | 30.58458 | -12.45909 | 34975 ft | 386 kts | 214° |
| 2026-05-07 20:16 | 30.53581 | -12.48547 | 34983 ft | 387 kts | 214° |
| 2026-05-07 20:16 | 30.48861 | -12.51093 | 34984 ft | 387 kts | 214° |
| 2026-05-07 20:17 | 30.43939 | -12.53738 | 34985 ft | 387 kts | 214° |
| 2026-05-07 20:17 | 30.39082 | -12.56349 | 34987 ft | 387 kts | 214° |
| 2026-05-07 20:18 | 30.34160 | -12.58990 | 34950 ft | 388 kts | 213° |
| 2026-05-07 20:18 | 30.30070 | -12.61198 | 34991 ft | 392 kts | 213° |
| 2026-05-07 20:19 | 30.29459 | -12.61527 | 34987 ft | 392 kts | 213° |
| 2026-05-07 20:19 | 30.27965 | -12.62241 | 34963 ft | 397 kts | 210° |
| 2026-05-07 20:20 | 30.22946 | -12.64750 | 34979 ft | 391 kts | 214° |
| 2026-05-07 20:20 | 30.18104 | -12.67508 | 34989 ft | 391 kts | 215° |
| 2026-05-07 20:21 | 30.13200 | -12.70246 | 34991 ft | 392 kts | 214° |
| 2026-05-07 20:21 | 30.08290 | -12.72972 | 34990 ft | 390 kts | 216° |
| 2026-05-07 20:22 | 30.03551 | -12.75974 | 34998 ft | 388 kts | 218° |
| 2026-05-07 20:22 | 29.98868 | -12.79068 | 35011 ft | 388 kts | 218° |
| 2026-05-07 20:23 | 29.94162 | -12.82120 | 35014 ft | 388 kts | 217° |
| 2026-05-07 20:23 | 29.89437 | -12.85143 | 35016 ft | 388 kts | 217° |
| 2026-05-07 20:24 | 29.84707 | -12.88152 | 35018 ft | 388 kts | 217° |
| 2026-05-07 20:24 | 29.79974 | -12.91162 | 35020 ft | 388 kts | 217° |
| 2026-05-07 20:25 | 29.75242 | -12.94165 | 34974 ft | 389 kts | 217° |
| 2026-05-07 20:25 | 29.70504 | -12.97174 | 34985 ft | 390 kts | 217° |
| 2026-05-07 20:26 | 29.65740 | -13.00203 | 34995 ft | 391 kts | 217° |
| 2026-05-07 20:26 | 29.61000 | -13.03207 | 34963 ft | 392 kts | 217° |
| 2026-05-07 20:27 | 29.56421 | -13.06126 | 34907 ft | 398 kts | 217° |
| 2026-05-07 20:27 | 29.51609 | -13.09251 | 35259 ft | 393 kts | 218° |
| 2026-05-07 20:27 | 29.49262 | -13.10810 | 35597 ft | 388 kts | 218° |
| 2026-05-07 20:28 | 29.46940 | -13.12385 | 35873 ft | 386 kts | 219° |
| 2026-05-07 20:28 | 29.42334 | -13.15645 | 35932 ft | 394 kts | 220° |
| 2026-05-07 20:29 | 29.40087 | -13.17310 | 35841 ft | 399 kts | 220° |
| 2026-05-07 20:29 | 29.35464 | -13.20909 | 35987 ft | 401 kts | 222° |
| 2026-05-07 20:29 | 29.33201 | -13.22761 | 36272 ft | 398 kts | 223° |
| 2026-05-07 20:30 | 29.30988 | -13.24634 | 36590 ft | 394 kts | 224° |
| 2026-05-07 20:30 | 29.28816 | -13.26538 | 36838 ft | 393 kts | 225° |
| 2026-05-07 20:30 | 29.27026 | -13.28163 | 36956 ft | 395 kts | 226° |
| 2026-05-07 20:31 | 29.22780 | -13.32242 | 37062 ft | 402 kts | 227° |